createdAt,value
2022-12-01T00:01:15.594Z,12.10
2022-12-01T00:03:42.660Z,12.80
2022-12-01T00:06:20.603Z,12.23
2022-12-01T00:09:08.084Z,13.07
2022-12-01T00:11:36.598Z,12.25
2022-12-01T00:14:04.420Z,11.35
2022-12-01T00:16:31.347Z,11.88
2022-12-01T00:18:58.427Z,11.43
2022-12-01T00:21:25.915Z,10.85
2022-12-01T00:23:55.339Z,11.60
2022-12-01T00:26:23.420Z,11.25
2022-12-01T00:28:51.567Z,11.80
2022-12-01T00:31:19.307Z,11.05
2022-12-01T00:33:46.171Z,10.52
2022-12-01T00:36:12.864Z,10.57
2022-12-01T00:38:40.158Z,11.50
2022-12-01T00:41:07.215Z,12.27
2022-12-01T00:43:33.984Z,10.93
2022-12-01T00:46:00.885Z,11.55
2022-12-01T00:48:27.868Z,10.50
2022-12-01T00:50:55.316Z,11.20
2022-12-01T00:53:22.753Z,9.80
2022-12-01T00:55:49.594Z,11.30
2022-12-01T00:58:16.312Z,10.98
2022-12-01T01:00:47.460Z,11.10
2022-12-01T01:03:14.350Z,11.55
2022-12-01T01:05:42.959Z,12.02
2022-12-01T01:08:14.863Z,11.07
2022-12-01T01:10:43.716Z,10.82
2022-12-01T01:13:11.600Z,10.27
2022-12-01T01:15:38.761Z,10.70
2022-12-01T01:18:06.440Z,9.95
2022-12-01T01:20:33.863Z,10.15
2022-12-01T01:23:00.583Z,10.80
2022-12-01T01:25:27.331Z,11.13
2022-12-01T01:27:54.162Z,10.52
2022-12-01T01:30:21.441Z,10.38
2022-12-01T01:32:48.206Z,10.57
2022-12-01T01:35:15.016Z,10.55
2022-12-01T01:37:41.751Z,10.48
2022-12-01T01:40:09.027Z,10.77
2022-12-01T01:42:35.902Z,11.27
2022-12-01T01:45:02.645Z,11.00
2022-12-01T01:47:36.798Z,11.30
2022-12-01T01:50:09.542Z,10.20
2022-12-01T01:52:43.000Z,11.45
2022-12-01T01:55:10.128Z,10.68
2022-12-01T01:57:37.871Z,11.77
2022-12-01T02:00:11.170Z,12.07
2022-12-01T02:02:40.791Z,12.55
2022-12-01T02:05:11.985Z,11.77
2022-12-01T02:07:40.177Z,13.13
2022-12-01T02:10:09.059Z,12.88
2022-12-01T02:13:07.760Z,13.00
2022-12-01T02:16:14.925Z,14.20
2022-12-01T02:19:03.559Z,14.57
2022-12-01T02:22:09.384Z,15.38
2022-12-01T02:24:48.079Z,15.70
2022-12-01T02:27:37.812Z,15.82
2022-12-01T02:30:16.648Z,16.63
2022-12-01T02:32:47.395Z,17.27
2022-12-01T02:35:22.456Z,16.30
2022-12-01T02:38:00.565Z,16.02
2022-12-01T02:40:42.068Z,16.73
2022-12-01T02:43:40.679Z,18.63
2022-12-01T02:46:33.835Z,17.08
2022-12-01T02:49:06.889Z,16.30
2022-12-01T02:51:37.342Z,17.10
2022-12-01T02:54:05.856Z,17.27
2022-12-01T02:56:32.764Z,17.58
2022-12-01T02:58:59.460Z,17.80
2022-12-01T03:01:54.376Z,18.48
2022-12-01T03:04:30.508Z,18.00
2022-12-01T03:07:12.132Z,18.20
2022-12-01T03:10:11.225Z,19.30
2022-12-01T03:12:47.160Z,18.85
2022-12-01T03:15:19.978Z,19.80
2022-12-01T03:18:02.761Z,19.08
2022-12-01T03:20:38.225Z,18.63
2022-12-01T03:23:10.863Z,17.98
2022-12-01T03:25:41.815Z,18.30
2022-12-01T03:28:21.023Z,19.75
2022-12-01T03:30:50.811Z,19.25
2022-12-01T03:33:25.186Z,19.55
2022-12-01T03:35:58.400Z,19.65
2022-12-01T03:38:27.856Z,19.90
2022-12-01T03:41:05.408Z,19.77
2022-12-01T03:43:36.177Z,20.20
2022-12-01T03:46:24.955Z,20.20
2022-12-01T03:48:54.271Z,19.90
2022-12-01T03:51:34.687Z,20.05
2022-12-01T03:54:27.219Z,21.40
2022-12-01T03:56:56.929Z,19.67
2022-12-01T03:59:26.397Z,20.10
2022-12-01T04:01:53.326Z,21.63
2022-12-01T04:04:20.074Z,21.17
2022-12-01T04:06:50.425Z,21.20
2022-12-01T04:09:17.538Z,21.60
2022-12-01T04:12:23.088Z,23.00
2022-12-01T04:14:49.825Z,23.73
2022-12-01T04:17:16.575Z,23.45
2022-12-01T04:19:43.292Z,23.60
2022-12-01T04:22:10.060Z,23.95
2022-12-01T04:24:36.763Z,23.52
2022-12-01T04:27:03.581Z,24.70
2022-12-01T04:29:30.326Z,25.15
2022-12-01T04:31:57.089Z,23.15
2022-12-01T04:34:23.819Z,24.30
2022-12-01T04:36:50.701Z,23.60
2022-12-01T04:39:17.553Z,24.48
2022-12-01T04:41:44.296Z,24.98
2022-12-01T04:44:11.440Z,25.33
2022-12-01T04:46:38.521Z,24.55
2022-12-01T04:49:05.760Z,24.67
2022-12-01T04:51:32.669Z,24.98
2022-12-01T04:53:59.452Z,24.67
2022-12-01T04:56:26.231Z,24.00
2022-12-01T04:58:52.926Z,25.42
2022-12-01T05:01:19.789Z,22.92
2022-12-01T05:03:50.805Z,23.52
2022-12-01T05:06:26.868Z,23.17
2022-12-01T05:08:59.203Z,24.77
2022-12-01T05:11:27.596Z,23.98
2022-12-01T05:13:54.410Z,23.63
2022-12-01T05:16:26.560Z,22.02
2022-12-01T05:19:14.296Z,21.88
2022-12-01T05:21:42.650Z,22.75
2022-12-01T05:24:10.808Z,23.25
2022-12-01T05:26:37.621Z,24.65
2022-12-01T05:29:04.927Z,23.23
2022-12-01T05:31:32.016Z,22.95
2022-12-01T05:33:58.785Z,23.90
2022-12-01T05:36:25.609Z,24.80
2022-12-01T05:38:52.508Z,26.05
2022-12-01T05:41:19.220Z,24.85
2022-12-01T05:43:46.029Z,24.65
2022-12-01T05:46:12.955Z,25.10
2022-12-01T05:48:39.712Z,25.83
2022-12-01T05:51:10.970Z,24.70
2022-12-01T05:53:38.422Z,24.13
2022-12-01T05:56:06.408Z,27.05
2022-12-01T05:58:33.356Z,26.77
2022-12-01T06:01:00.440Z,27.50
2022-12-01T06:03:27.252Z,26.20
2022-12-01T06:05:53.931Z,26.85
2022-12-01T06:08:20.773Z,26.13
2022-12-01T06:10:47.536Z,26.42
2022-12-01T06:13:14.712Z,25.87
2022-12-01T06:15:41.506Z,26.23
2022-12-01T06:18:08.440Z,27.45
2022-12-01T06:20:35.261Z,26.50
2022-12-01T06:23:01.999Z,26.88
2022-12-01T06:25:28.693Z,28.40
2022-12-01T06:27:58.904Z,27.67
2022-12-01T06:30:26.081Z,28.38
2022-12-01T06:32:52.976Z,27.83
2022-12-01T06:35:20.068Z,28.00
2022-12-01T06:37:46.800Z,26.80
2022-12-01T06:40:13.965Z,27.50
2022-12-01T06:42:40.724Z,28.00
2022-12-01T06:45:07.916Z,28.52
2022-12-01T06:47:35.025Z,28.60
2022-12-01T06:50:02.242Z,27.92
2022-12-01T06:52:29.000Z,28.80
2022-12-01T06:54:55.784Z,28.05
2022-12-01T06:57:22.811Z,28.45
2022-12-01T06:59:49.937Z,27.92
2022-12-01T07:02:17.589Z,26.98
2022-12-01T07:04:44.370Z,28.90
2022-12-01T07:07:12.219Z,27.48
2022-12-01T07:09:39.545Z,27.60
2022-12-01T07:12:06.662Z,28.52
2022-12-01T07:14:33.616Z,27.25
2022-12-01T07:17:00.492Z,28.25
2022-12-01T07:19:27.559Z,28.00
2022-12-01T07:21:54.321Z,28.17
2022-12-01T07:24:21.071Z,28.15
2022-12-01T07:26:48.247Z,28.45
2022-12-01T07:29:15.165Z,28.70
2022-12-01T07:31:41.975Z,27.73
2022-12-01T07:34:13.244Z,28.15
2022-12-01T07:36:39.950Z,25.67
2022-12-01T07:39:07.903Z,26.85
2022-12-01T07:41:35.626Z,25.88
2022-12-01T07:44:02.708Z,26.42
2022-12-01T07:46:29.809Z,24.38
2022-12-01T07:48:57.160Z,25.52
2022-12-01T07:51:25.302Z,26.67
2022-12-01T07:53:53.106Z,24.63
2022-12-01T07:56:21.273Z,24.33
2022-12-01T07:58:48.129Z,25.13
2022-12-01T08:01:17.597Z,23.40
2022-12-01T08:03:44.661Z,24.98
2022-12-01T08:06:12.151Z,25.10
2022-12-01T08:08:41.138Z,23.73
2022-12-01T08:11:13.302Z,24.02
2022-12-01T08:13:41.155Z,24.80
2022-12-01T08:16:11.265Z,24.40
2022-12-01T08:18:39.350Z,23.35
2022-12-01T08:21:07.528Z,24.63
2022-12-01T08:23:34.726Z,23.92
2022-12-01T08:26:12.482Z,24.92
2022-12-01T08:28:39.893Z,24.67
2022-12-01T08:31:12.864Z,24.65
2022-12-01T08:33:40.037Z,24.98
2022-12-01T08:36:07.470Z,24.42
2022-12-01T08:38:34.608Z,24.95
2022-12-01T08:41:08.840Z,25.63
2022-12-01T08:46:28.917Z,25.05
2022-12-01T08:48:57.705Z,24.38
2022-12-01T08:51:25.750Z,24.42
2022-12-01T08:53:53.093Z,26.88
2022-12-01T08:56:24.105Z,24.25
2022-12-01T08:58:51.684Z,25.67
2022-12-01T09:01:26.442Z,23.83
2022-12-01T09:04:05.669Z,25.70
2022-12-01T09:06:37.473Z,23.92
2022-12-01T09:09:04.506Z,24.52
2022-12-01T09:11:31.304Z,25.58
2022-12-01T09:14:00.673Z,23.65
2022-12-01T09:16:27.729Z,23.10
2022-12-01T09:18:55.421Z,25.05
2022-12-01T09:21:25.256Z,24.50
2022-12-01T09:23:52.746Z,24.42
2022-12-01T09:26:20.521Z,25.45
2022-12-01T09:28:49.155Z,24.35
2022-12-01T09:31:18.506Z,23.77
2022-12-01T09:33:45.415Z,22.75
2022-12-01T09:36:12.630Z,23.15
2022-12-01T09:38:40.271Z,22.35
2022-12-01T09:41:18.067Z,23.33
2022-12-01T09:44:14.249Z,22.08
2022-12-01T09:46:47.140Z,22.67
2022-12-01T09:49:24.159Z,20.92
2022-12-01T09:51:53.595Z,23.83
2022-12-01T09:54:20.903Z,21.88
2022-12-01T09:56:52.988Z,22.98
2022-12-01T09:59:31.028Z,23.53
2022-12-01T10:02:19.436Z,20.67
2022-12-01T10:04:48.435Z,20.17
2022-12-01T10:07:26.524Z,20.65
2022-12-01T10:10:02.670Z,20.75
2022-12-01T10:12:34.954Z,19.15
2022-12-01T10:15:39.276Z,20.27
2022-12-01T10:18:25.427Z,18.55
2022-12-01T10:21:28.750Z,17.85
2022-12-01T10:24:34.294Z,18.05
2022-12-01T10:27:03.970Z,16.35
2022-12-01T10:30:11.021Z,16.02
2022-12-01T10:33:04.109Z,14.25
2022-12-01T10:35:37.641Z,15.88
2022-12-01T10:38:07.180Z,14.65
2022-12-01T10:40:35.149Z,15.98
2022-12-01T10:43:02.330Z,14.75
2022-12-01T10:45:34.540Z,15.60
2022-12-01T10:48:15.130Z,15.30
2022-12-01T10:50:44.321Z,15.38
2022-12-01T10:53:23.193Z,13.35
2022-12-01T10:55:56.332Z,14.82
2022-12-01T10:58:23.316Z,14.60
2022-12-01T11:01:03.677Z,14.70
2022-12-01T11:03:34.765Z,14.15
2022-12-01T11:06:06.718Z,13.70
2022-12-01T11:08:40.955Z,13.40
2022-12-01T11:11:26.032Z,13.13
2022-12-01T11:13:54.021Z,13.63
2022-12-01T11:16:42.880Z,11.90
2022-12-01T11:19:34.609Z,13.05
2022-12-01T11:22:26.060Z,11.00
2022-12-01T11:24:52.754Z,11.35
2022-12-01T11:27:47.262Z,10.43
2022-12-01T11:30:32.382Z,10.73
2022-12-01T11:33:02.344Z,10.95
2022-12-01T11:35:36.060Z,11.00
2022-12-01T11:38:28.745Z,11.27
2022-12-01T11:40:55.280Z,11.57
2022-12-01T11:43:32.112Z,10.82
2022-12-01T11:46:05.954Z,12.23
2022-12-01T11:48:37.348Z,11.02
2022-12-01T11:51:19.359Z,11.07
2022-12-01T11:53:46.431Z,12.48
2022-12-01T11:56:15.721Z,11.45
2022-12-01T11:58:44.235Z,10.88
2022-12-01T12:01:33.280Z,10.35
2022-12-01T12:04:18.775Z,11.88
2022-12-01T12:07:10.443Z,12.18
2022-12-01T12:10:04.412Z,11.90
2022-12-01T12:12:31.121Z,12.07
2022-12-01T12:15:05.980Z,12.15
2022-12-01T12:17:42.439Z,12.20
2022-12-01T12:20:22.028Z,12.18
2022-12-01T12:22:59.006Z,14.05
2022-12-01T12:25:42.139Z,15.02
2022-12-01T12:28:39.945Z,15.13
2022-12-01T12:31:25.395Z,14.95
2022-12-01T12:33:58.121Z,16.42
2022-12-01T12:36:42.306Z,16.88
2022-12-01T12:39:46.735Z,17.13
2022-12-01T12:42:52.251Z,17.23
2022-12-01T12:45:29.170Z,17.77
2022-12-01T12:48:01.858Z,19.67
2022-12-01T12:50:37.488Z,19.67
2022-12-01T12:53:29.406Z,18.25
2022-12-01T12:56:04.592Z,19.17
2022-12-01T12:58:43.333Z,19.95
2022-12-01T13:01:29.077Z,18.95
2022-12-01T13:03:58.817Z,19.20
2022-12-01T13:06:41.565Z,18.92
2022-12-01T13:09:10.973Z,19.42
2022-12-01T13:11:47.921Z,20.13
2022-12-01T13:14:24.501Z,19.73
2022-12-01T13:16:55.803Z,19.23
2022-12-01T13:19:29.654Z,20.10
2022-12-01T13:21:57.429Z,20.00
2022-12-01T13:24:27.222Z,21.25
2022-12-01T13:27:05.081Z,19.30
2022-12-01T13:29:47.113Z,20.95
2022-12-01T13:32:32.701Z,19.92
2022-12-01T13:35:02.003Z,21.30
2022-12-01T13:37:35.515Z,21.55
2022-12-01T13:40:27.366Z,21.80
2022-12-01T13:43:08.444Z,21.45
2022-12-01T13:45:38.322Z,21.27
2022-12-01T13:48:06.560Z,23.92
2022-12-01T13:50:56.803Z,22.48
2022-12-01T13:53:23.608Z,23.40
2022-12-01T13:56:01.005Z,22.50
2022-12-01T13:58:33.837Z,22.67
2022-12-01T14:01:42.905Z,21.95
2022-12-01T14:04:15.600Z,24.63
2022-12-01T14:06:49.506Z,23.52
2022-12-01T14:09:40.786Z,24.20
2022-12-01T14:12:37.921Z,24.95
2022-12-01T14:15:23.612Z,26.85
2022-12-01T14:18:16.196Z,25.02
2022-12-01T14:20:48.423Z,28.13
2022-12-01T14:23:18.444Z,28.70
2022-12-01T14:25:59.839Z,28.42
2022-12-01T14:29:08.792Z,28.35
2022-12-01T14:31:35.622Z,28.75
2022-12-01T14:34:04.000Z,28.92
2022-12-01T14:36:42.071Z,27.42
2022-12-01T14:39:12.288Z,27.10
2022-12-01T14:41:51.140Z,26.27
2022-12-01T14:44:32.950Z,26.92
2022-12-01T14:47:17.352Z,27.63
2022-12-01T14:50:02.864Z,27.50
2022-12-01T14:52:35.470Z,27.08
2022-12-01T14:55:07.511Z,29.77
2022-12-01T14:57:39.862Z,26.00
2022-12-01T15:00:22.024Z,28.77
2022-12-01T15:03:10.262Z,26.40
2022-12-01T15:05:42.541Z,25.95
2022-12-01T15:08:41.852Z,28.50
2022-12-01T15:11:20.841Z,25.88
2022-12-01T15:13:50.176Z,26.35
2022-12-01T15:16:20.526Z,28.05
2022-12-01T15:18:47.752Z,27.63
2022-12-01T15:21:26.717Z,26.42
2022-12-01T15:24:00.716Z,26.98
2022-12-01T15:26:35.614Z,26.40
2022-12-01T15:29:14.419Z,24.95
2022-12-01T15:31:43.816Z,24.60
2022-12-01T15:34:31.951Z,24.48
2022-12-01T15:37:00.439Z,25.80
2022-12-01T15:39:33.633Z,26.05
2022-12-01T15:42:01.015Z,26.95
2022-12-01T15:44:29.509Z,27.15
2022-12-01T15:46:56.832Z,26.80
2022-12-01T15:49:29.645Z,26.77
2022-12-01T15:52:06.269Z,27.08
2022-12-01T15:54:33.410Z,28.52
2022-12-01T15:57:00.845Z,28.88
2022-12-01T15:59:35.854Z,29.15
2022-12-01T16:02:33.389Z,27.67
2022-12-01T16:05:09.194Z,27.35
2022-12-01T16:08:12.250Z,27.67
2022-12-01T16:10:44.557Z,28.90
2022-12-01T16:13:41.818Z,29.02
2022-12-01T16:16:39.309Z,28.00
2022-12-01T16:19:11.979Z,27.67
2022-12-01T16:21:47.567Z,28.58
2022-12-01T16:24:30.547Z,28.95
2022-12-01T16:27:02.617Z,28.70
2022-12-01T16:29:31.892Z,27.10
2022-12-01T16:32:21.285Z,28.85
2022-12-01T16:34:53.002Z,29.35
2022-12-01T16:37:22.108Z,29.60
2022-12-01T16:39:50.096Z,29.33
2022-12-01T16:42:21.112Z,30.40
2022-12-01T16:44:49.753Z,30.60
2022-12-01T16:47:27.108Z,29.35
2022-12-01T16:49:53.991Z,30.13
2022-12-01T16:55:36.655Z,29.38
2022-12-01T16:58:03.495Z,29.52
2022-12-01T17:00:30.344Z,28.48
2022-12-01T17:02:57.676Z,29.95
2022-12-01T17:05:24.497Z,27.77
2022-12-01T17:07:51.801Z,29.77
2022-12-01T17:10:18.829Z,28.48
2022-12-01T17:12:45.696Z,29.70
2022-12-01T17:15:12.516Z,29.05
2022-12-01T17:17:39.470Z,29.45
2022-12-01T17:20:07.793Z,30.38
2022-12-01T17:22:34.793Z,30.10
2022-12-01T17:25:02.401Z,28.52
2022-12-01T17:27:31.436Z,31.25
2022-12-01T17:29:59.078Z,30.08
2022-12-01T17:32:27.132Z,30.88
2022-12-01T17:34:54.427Z,30.67
2022-12-01T17:37:21.585Z,32.88
2022-12-01T17:39:49.496Z,30.10
2022-12-01T17:42:16.783Z,30.63
2022-12-01T17:44:43.543Z,30.98
2022-12-01T17:47:10.467Z,30.40
2022-12-01T17:49:37.291Z,29.17
2022-12-01T17:52:08.467Z,30.77
2022-12-01T17:54:35.284Z,29.55
2022-12-01T17:57:02.077Z,28.67
2022-12-01T17:59:28.819Z,29.30
2022-12-01T18:01:55.720Z,28.55
2022-12-01T18:04:22.557Z,28.80
2022-12-01T18:06:53.736Z,29.13
2022-12-01T18:09:21.366Z,30.13
2022-12-01T18:11:48.259Z,31.60
2022-12-01T18:14:18.192Z,30.55
2022-12-01T18:16:45.768Z,31.15
2022-12-01T18:19:13.157Z,29.73
2022-12-01T18:21:40.533Z,29.75
2022-12-01T18:24:11.472Z,29.83
2022-12-01T18:26:40.661Z,29.15
2022-12-01T18:29:26.164Z,31.80
2022-12-01T18:31:57.844Z,32.22
2022-12-01T18:34:26.074Z,31.55
2022-12-01T18:36:52.914Z,30.52
2022-12-01T18:39:21.286Z,30.95
2022-12-01T18:41:48.147Z,32.10
2022-12-01T18:44:14.970Z,31.88
2022-12-01T18:46:41.921Z,30.15
2022-12-01T18:49:09.236Z,30.70
2022-12-01T18:51:37.726Z,32.00
2022-12-01T18:54:06.162Z,31.85
2022-12-01T18:56:33.834Z,31.17
2022-12-01T18:59:03.656Z,33.20
2022-12-01T19:01:36.142Z,32.13
2022-12-01T19:04:04.269Z,30.58
2022-12-01T19:06:42.117Z,32.38
2022-12-01T19:09:10.940Z,30.67
2022-12-01T19:11:40.345Z,32.15
2022-12-01T19:14:08.381Z,31.25
2022-12-01T19:16:35.224Z,31.38
2022-12-01T19:19:02.138Z,29.85
2022-12-01T19:21:28.975Z,32.15
2022-12-01T19:23:55.752Z,31.48
2022-12-01T19:26:23.072Z,31.33
2022-12-01T19:28:50.351Z,32.97
2022-12-01T19:31:23.896Z,30.88
2022-12-01T19:33:52.125Z,32.08
2022-12-01T19:36:21.857Z,32.40
2022-12-01T19:38:48.984Z,30.83
2022-12-01T19:41:16.672Z,29.52
2022-12-01T19:43:43.508Z,30.88
2022-12-01T19:46:13.303Z,30.92
2022-12-01T19:48:40.576Z,31.67
2022-12-01T19:51:07.822Z,31.52
2022-12-01T19:53:34.788Z,30.67
2022-12-01T19:56:03.502Z,31.85
2022-12-01T19:58:33.309Z,30.90
2022-12-01T20:01:04.745Z,29.10
2022-12-01T20:03:31.687Z,29.58
2022-12-01T20:06:03.667Z,31.45
2022-12-01T20:08:32.873Z,31.17
2022-12-01T20:11:04.371Z,31.27
2022-12-01T20:13:32.683Z,31.23
2022-12-01T20:16:08.567Z,30.10
2022-12-01T20:18:36.450Z,30.83
2022-12-01T20:21:09.887Z,30.33
2022-12-01T20:23:37.148Z,31.20
2022-12-01T20:26:07.268Z,30.23
2022-12-01T20:28:35.262Z,31.80
2022-12-01T20:31:02.943Z,31.48
2022-12-01T20:33:29.839Z,29.73
2022-12-01T20:35:56.637Z,30.58
2022-12-01T20:38:27.525Z,32.38
2022-12-01T20:40:54.650Z,30.15
2022-12-01T20:43:21.829Z,31.17
2022-12-01T20:45:48.722Z,31.55
2022-12-01T20:48:16.324Z,30.00
2022-12-01T20:50:43.179Z,29.77
2022-12-01T20:53:10.205Z,30.08
2022-12-01T20:55:37.657Z,28.10
2022-12-01T20:58:07.818Z,29.65
2022-12-01T21:00:37.020Z,27.52
2022-12-01T21:03:04.331Z,29.63
2022-12-01T21:05:33.091Z,30.20
2022-12-01T21:08:00.692Z,27.83
2022-12-01T21:10:28.117Z,28.73
2022-12-01T21:13:18.501Z,28.17
2022-12-01T21:16:01.620Z,27.63
2022-12-01T21:18:42.547Z,26.27
2022-12-01T21:21:38.051Z,26.33
2022-12-01T21:24:07.759Z,26.45
2022-12-01T21:26:37.047Z,26.00
2022-12-01T21:29:26.698Z,28.90
2022-12-01T21:31:58.907Z,26.33
2022-12-01T21:34:28.511Z,27.63
2022-12-01T21:37:00.019Z,26.67
2022-12-01T21:39:26.794Z,27.40
2022-12-01T21:41:56.604Z,26.55
2022-12-01T21:44:39.379Z,27.15
2022-12-01T21:47:20.357Z,27.80
2022-12-01T21:49:51.372Z,26.80
2022-12-01T21:52:30.319Z,27.48
2022-12-01T21:55:15.359Z,27.20
2022-12-01T21:57:44.041Z,26.70
2022-12-01T22:00:28.851Z,26.48
2022-12-01T22:03:04.063Z,26.95
2022-12-01T22:05:33.888Z,27.30
2022-12-01T22:08:35.523Z,27.15
2022-12-01T22:11:24.645Z,25.08
2022-12-01T22:14:00.545Z,26.50
2022-12-01T22:16:57.253Z,27.30
2022-12-01T22:19:31.074Z,26.55
2022-12-01T22:22:16.130Z,27.40
2022-12-01T22:24:42.815Z,26.90
2022-12-01T22:27:14.392Z,27.75
2022-12-01T22:29:44.926Z,26.40
2022-12-01T22:32:11.613Z,26.27
2022-12-01T22:34:51.003Z,26.23
2022-12-01T22:37:23.853Z,25.55
2022-12-01T22:39:56.236Z,27.13
2022-12-01T22:42:32.355Z,27.17
2022-12-01T22:45:22.052Z,26.40
2022-12-01T22:47:48.822Z,26.40
2022-12-01T22:50:31.146Z,27.88
2022-12-01T22:53:06.426Z,28.20
2022-12-01T22:55:33.931Z,26.83
2022-12-01T22:58:01.185Z,24.42
2022-12-01T23:00:27.899Z,25.50
2022-12-01T23:02:56.331Z,27.30
2022-12-01T23:05:29.494Z,25.08
2022-12-01T23:07:57.096Z,27.45
2022-12-01T23:10:28.284Z,24.88
2022-12-01T23:12:59.495Z,25.45
2022-12-01T23:15:37.369Z,23.88
2022-12-01T23:18:22.224Z,24.45
2022-12-01T23:20:59.976Z,23.77
2022-12-01T23:23:31.955Z,24.15
2022-12-01T23:26:01.106Z,23.90
2022-12-01T23:28:29.736Z,23.90
2022-12-01T23:30:58.771Z,23.60
2022-12-01T23:33:31.623Z,24.00
2022-12-01T23:36:00.615Z,23.52
2022-12-01T23:38:38.590Z,23.30
2022-12-01T23:41:16.525Z,20.80
2022-12-01T23:43:45.267Z,20.67
2022-12-01T23:46:20.415Z,19.70
2022-12-01T23:48:58.949Z,21.08
2022-12-01T23:51:30.712Z,18.98
2022-12-01T23:53:58.456Z,18.30
2022-12-01T23:56:26.844Z,18.92
2022-12-01T23:58:55.720Z,18.67
